sensor_id;sensor_type;location;lat;lon;timestamp;P1;durP1;ratioP1;P2;durP2;ratioP2
29362;SDS011;16349;53.672;10.014;2023-03-24T00:01:22;6.03;;;5.43;;
29362;SDS011;16349;53.672;10.014;2023-03-24T00:03:49;6.60;;;5.87;;
29362;SDS011;16349;53.672;10.014;2023-03-24T00:06:18;9.60;;;5.50;;
29362;SDS011;16349;53.672;10.014;2023-03-24T00:08:47;11.60;;;5.40;;
29362;SDS011;16349;53.672;10.014;2023-03-24T00:11:13;7.57;;;5.00;;
29362;SDS011;16349;53.672;10.014;2023-03-24T00:13:42;6.80;;;5.50;;
29362;SDS011;16349;53.672;10.014;2023-03-24T00:16:12;10.00;;;4.97;;
29362;SDS011;16349;53.672;10.014;2023-03-24T00:18:41;7.37;;;5.50;;
29362;SDS011;16349;53.672;10.014;2023-03-24T00:21:08;5.80;;;5.00;;
29362;SDS011;16349;53.672;10.014;2023-03-24T00:23:40;7.60;;;4.53;;
29362;SDS011;16349;53.672;10.014;2023-03-24T00:26:08;7.50;;;4.40;;
29362;SDS011;16349;53.672;10.014;2023-03-24T00:28:40;6.17;;;3.80;;
29362;SDS011;16349;53.672;10.014;2023-03-24T00:31:10;5.47;;;4.10;;
29362;SDS011;16349;53.672;10.014;2023-03-24T00:33:38;9.50;;;4.10;;
29362;SDS011;16349;53.672;10.014;2023-03-24T00:36:07;5.93;;;4.23;;
29362;SDS011;16349;53.672;10.014;2023-03-24T00:38:37;7.50;;;3.93;;
29362;SDS011;16349;53.672;10.014;2023-03-24T00:41:07;5.27;;;3.93;;
29362;SDS011;16349;53.672;10.014;2023-03-24T00:43:35;6.40;;;3.73;;
29362;SDS011;16349;53.672;10.014;2023-03-24T00:46:02;8.00;;;4.00;;
29362;SDS011;16349;53.672;10.014;2023-03-24T00:48:33;4.37;;;3.67;;
29362;SDS011;16349;53.672;10.014;2023-03-24T00:51:24;4.23;;;3.80;;
29362;SDS011;16349;53.672;10.014;2023-03-24T00:53:51;7.20;;;3.13;;
29362;SDS011;16349;53.672;10.014;2023-03-24T00:56:29;7.20;;;3.57;;
29362;SDS011;16349;53.672;10.014;2023-03-24T00:58:57;4.63;;;3.53;;
29362;SDS011;16349;53.672;10.014;2023-03-24T01:01:26;5.87;;;3.30;;
29362;SDS011;16349;53.672;10.014;2023-03-24T01:03:54;10.47;;;3.50;;
29362;SDS011;16349;53.672;10.014;2023-03-24T01:06:22;4.80;;;3.90;;
29362;SDS011;16349;53.672;10.014;2023-03-24T01:08:50;5.97;;;3.50;;
29362;SDS011;16349;53.672;10.014;2023-03-24T01:11:18;4.80;;;2.77;;
29362;SDS011;16349;53.672;10.014;2023-03-24T01:13:51;8.50;;;3.30;;
29362;SDS011;16349;53.672;10.014;2023-03-24T01:16:20;8.93;;;3.07;;
29362;SDS011;16349;53.672;10.014;2023-03-24T01:18:49;4.87;;;3.03;;
29362;SDS011;16349;53.672;10.014;2023-03-24T01:21:16;4.20;;;2.53;;
29362;SDS011;16349;53.672;10.014;2023-03-24T01:23:43;7.10;;;3.10;;
29362;SDS011;16349;53.672;10.014;2023-03-24T01:26:10;4.63;;;3.00;;
29362;SDS011;16349;53.672;10.014;2023-03-24T01:28:38;4.57;;;2.73;;
29362;SDS011;16349;53.672;10.014;2023-03-24T01:31:12;5.03;;;2.70;;
29362;SDS011;16349;53.672;10.014;2023-03-24T01:33:38;7.47;;;2.83;;
29362;SDS011;16349;53.672;10.014;2023-03-24T01:36:06;5.10;;;2.80;;
29362;SDS011;16349;53.672;10.014;2023-03-24T01:38:33;3.80;;;2.37;;
29362;SDS011;16349;53.672;10.014;2023-03-24T01:41:00;3.87;;;2.57;;
29362;SDS011;16349;53.672;10.014;2023-03-24T01:43:29;4.03;;;2.83;;
29362;SDS011;16349;53.672;10.014;2023-03-24T01:46:00;5.43;;;3.10;;
29362;SDS011;16349;53.672;10.014;2023-03-24T01:48:52;5.00;;;2.60;;
29362;SDS011;16349;53.672;10.014;2023-03-24T01:51:24;6.90;;;3.07;;
29362;SDS011;16349;53.672;10.014;2023-03-24T01:53:56;6.57;;;2.70;;
29362;SDS011;16349;53.672;10.014;2023-03-24T01:56:25;6.17;;;2.83;;
29362;SDS011;16349;53.672;10.014;2023-03-24T01:58:57;6.13;;;3.17;;
29362;SDS011;16349;53.672;10.014;2023-03-24T02:01:34;6.87;;;2.67;;
29362;SDS011;16349;53.672;10.014;2023-03-24T02:04:15;5.03;;;2.83;;
29362;SDS011;16349;53.672;10.014;2023-03-24T02:06:43;3.93;;;3.03;;
29362;SDS011;16349;53.672;10.014;2023-03-24T02:09:12;3.17;;;2.57;;
29362;SDS011;16349;53.672;10.014;2023-03-24T02:12:01;6.03;;;2.90;;
29362;SDS011;16349;53.672;10.014;2023-03-24T02:14:29;4.80;;;3.03;;
29362;SDS011;16349;53.672;10.014;2023-03-24T02:17:01;6.30;;;2.97;;
29362;SDS011;16349;53.672;10.014;2023-03-24T02:19:59;6.40;;;3.40;;
29362;SDS011;16349;53.672;10.014;2023-03-24T02:22:57;5.83;;;2.57;;
29362;SDS011;16349;53.672;10.014;2023-03-24T02:28:34;5.20;;;3.13;;
29362;SDS011;16349;53.672;10.014;2023-03-24T02:31:12;4.07;;;3.00;;
29362;SDS011;16349;53.672;10.014;2023-03-24T02:37:05;4.00;;;3.13;;
29362;SDS011;16349;53.672;10.014;2023-03-24T02:40:00;6.27;;;2.70;;
29362;SDS011;16349;53.672;10.014;2023-03-24T02:42:37;7.70;;;3.43;;
29362;SDS011;16349;53.672;10.014;2023-03-24T02:45:16;6.47;;;3.03;;
29362;SDS011;16349;53.672;10.014;2023-03-24T02:47:54;2.97;;;2.70;;
29362;SDS011;16349;53.672;10.014;2023-03-24T02:50:34;6.20;;;3.30;;
29362;SDS011;16349;53.672;10.014;2023-03-24T02:53:06;7.77;;;3.37;;
29362;SDS011;16349;53.672;10.014;2023-03-24T02:55:52;4.87;;;3.00;;
29362;SDS011;16349;53.672;10.014;2023-03-24T02:58:22;4.63;;;2.77;;
29362;SDS011;16349;53.672;10.014;2023-03-24T03:00:59;4.57;;;2.73;;
29362;SDS011;16349;53.672;10.014;2023-03-24T03:03:59;6.37;;;3.20;;
29362;SDS011;16349;53.672;10.014;2023-03-24T03:06:31;5.73;;;2.93;;
29362;SDS011;16349;53.672;10.014;2023-03-24T03:09:03;5.10;;;2.87;;
29362;SDS011;16349;53.672;10.014;2023-03-24T03:11:35;4.23;;;2.83;;
29362;SDS011;16349;53.672;10.014;2023-03-24T03:14:04;5.97;;;2.93;;
29362;SDS011;16349;53.672;10.014;2023-03-24T03:16:36;4.17;;;3.00;;
29362;SDS011;16349;53.672;10.014;2023-03-24T03:19:10;6.60;;;3.57;;
29362;SDS011;16349;53.672;10.014;2023-03-24T03:21:44;7.00;;;3.93;;
29362;SDS011;16349;53.672;10.014;2023-03-24T03:24:16;3.67;;;3.00;;
29362;SDS011;16349;53.672;10.014;2023-03-24T03:26:53;6.37;;;3.13;;
29362;SDS011;16349;53.672;10.014;2023-03-24T03:29:23;5.60;;;3.70;;
29362;SDS011;16349;53.672;10.014;2023-03-24T03:31:57;3.17;;;2.97;;
29362;SDS011;16349;53.672;10.014;2023-03-24T03:34:33;7.27;;;3.63;;
29362;SDS011;16349;53.672;10.014;2023-03-24T03:37:06;5.20;;;3.60;;
29362;SDS011;16349;53.672;10.014;2023-03-24T03:39:39;4.97;;;3.20;;
29362;SDS011;16349;53.672;10.014;2023-03-24T03:42:14;3.60;;;3.20;;
29362;SDS011;16349;53.672;10.014;2023-03-24T03:44:41;6.90;;;3.17;;
29362;SDS011;16349;53.672;10.014;2023-03-24T03:47:08;4.63;;;3.20;;
29362;SDS011;16349;53.672;10.014;2023-03-24T03:49:41;4.67;;;3.57;;
29362;SDS011;16349;53.672;10.014;2023-03-24T03:52:27;3.83;;;3.37;;
29362;SDS011;16349;53.672;10.014;2023-03-24T03:54:55;3.10;;;2.87;;
29362;SDS011;16349;53.672;10.014;2023-03-24T03:57:24;4.53;;;3.43;;
29362;SDS011;16349;53.672;10.014;2023-03-24T04:00:10;5.07;;;2.63;;
29362;SDS011;16349;53.672;10.014;2023-03-24T04:02:55;3.73;;;2.90;;
29362;SDS011;16349;53.672;10.014;2023-03-24T04:05:35;5.90;;;3.20;;
29362;SDS011;16349;53.672;10.014;2023-03-24T04:08:18;4.73;;;3.13;;
29362;SDS011;16349;53.672;10.014;2023-03-24T04:11:23;5.40;;;3.33;;
29362;SDS011;16349;53.672;10.014;2023-03-24T04:14:12;5.23;;;3.37;;
29362;SDS011;16349;53.672;10.014;2023-03-24T04:17:08;4.63;;;3.47;;
29362;SDS011;16349;53.672;10.014;2023-03-24T04:19:46;4.43;;;3.87;;
29362;SDS011;16349;53.672;10.014;2023-03-24T04:22:50;5.80;;;3.63;;
29362;SDS011;16349;53.672;10.014;2023-03-24T04:25:31;4.10;;;3.70;;
29362;SDS011;16349;53.672;10.014;2023-03-24T04:28:08;7.67;;;4.87;;
29362;SDS011;16349;53.672;10.014;2023-03-24T04:31:10;4.77;;;3.60;;
29362;SDS011;16349;53.672;10.014;2023-03-24T04:33:44;4.03;;;3.70;;
29362;SDS011;16349;53.672;10.014;2023-03-24T04:36:18;5.70;;;3.30;;
29362;SDS011;16349;53.672;10.014;2023-03-24T04:39:10;4.30;;;3.60;;
29362;SDS011;16349;53.672;10.014;2023-03-24T04:41:43;3.83;;;3.43;;
29362;SDS011;16349;53.672;10.014;2023-03-24T04:44:21;3.47;;;3.17;;
29362;SDS011;16349;53.672;10.014;2023-03-24T04:47:10;3.97;;;3.07;;
29362;SDS011;16349;53.672;10.014;2023-03-24T04:49:45;3.80;;;3.37;;
29362;SDS011;16349;53.672;10.014;2023-03-24T04:52:12;5.60;;;3.43;;
29362;SDS011;16349;53.672;10.014;2023-03-24T04:54:39;4.70;;;3.47;;
29362;SDS011;16349;53.672;10.014;2023-03-24T04:57:05;4.30;;;3.30;;
29362;SDS011;16349;53.672;10.014;2023-03-24T04:59:41;3.77;;;3.30;;
29362;SDS011;16349;53.672;10.014;2023-03-24T05:02:09;4.13;;;3.30;;
29362;SDS011;16349;53.672;10.014;2023-03-24T05:04:45;3.87;;;3.40;;
29362;SDS011;16349;53.672;10.014;2023-03-24T05:07:16;6.83;;;3.77;;
29362;SDS011;16349;53.672;10.014;2023-03-24T05:09:46;3.73;;;3.30;;
29362;SDS011;16349;53.672;10.014;2023-03-24T05:12:13;4.23;;;3.00;;
29362;SDS011;16349;53.672;10.014;2023-03-24T05:15:09;4.17;;;3.40;;
29362;SDS011;16349;53.672;10.014;2023-03-24T05:17:39;5.53;;;3.60;;
29362;SDS011;16349;53.672;10.014;2023-03-24T05:20:07;4.17;;;3.73;;
29362;SDS011;16349;53.672;10.014;2023-03-24T05:22:36;5.40;;;4.00;;
29362;SDS011;16349;53.672;10.014;2023-03-24T05:25:04;7.23;;;5.07;;
29362;SDS011;16349;53.672;10.014;2023-03-24T05:27:33;3.93;;;3.57;;
29362;SDS011;16349;53.672;10.014;2023-03-24T05:30:12;4.33;;;3.77;;
29362;SDS011;16349;53.672;10.014;2023-03-24T05:32:43;3.83;;;3.43;;
29362;SDS011;16349;53.672;10.014;2023-03-24T05:35:09;4.90;;;4.30;;
29362;SDS011;16349;53.672;10.014;2023-03-24T05:37:36;3.53;;;3.20;;
29362;SDS011;16349;53.672;10.014;2023-03-24T05:40:03;2.93;;;2.73;;
29362;SDS011;16349;53.672;10.014;2023-03-24T05:42:48;3.57;;;3.27;;
29362;SDS011;16349;53.672;10.014;2023-03-24T05:45:16;3.53;;;3.23;;
29362;SDS011;16349;53.672;10.014;2023-03-24T05:47:46;4.60;;;3.90;;
29362;SDS011;16349;53.672;10.014;2023-03-24T05:50:16;6.87;;;4.23;;
29362;SDS011;16349;53.672;10.014;2023-03-24T05:52:44;3.73;;;3.43;;
29362;SDS011;16349;53.672;10.014;2023-03-24T05:55:30;3.50;;;3.20;;
29362;SDS011;16349;53.672;10.014;2023-03-24T05:58:05;4.20;;;3.80;;
29362;SDS011;16349;53.672;10.014;2023-03-24T06:00:38;3.83;;;2.97;;
29362;SDS011;16349;53.672;10.014;2023-03-24T06:03:13;3.40;;;3.10;;
29362;SDS011;16349;53.672;10.014;2023-03-24T06:05:46;5.03;;;3.73;;
29362;SDS011;16349;53.672;10.014;2023-03-24T06:08:35;4.20;;;3.80;;
29362;SDS011;16349;53.672;10.014;2023-03-24T06:11:02;4.73;;;3.57;;
29362;SDS011;16349;53.672;10.014;2023-03-24T06:13:37;12.80;;;6.13;;
29362;SDS011;16349;53.672;10.014;2023-03-24T06:16:05;5.13;;;4.40;;
29362;SDS011;16349;53.672;10.014;2023-03-24T06:18:39;5.23;;;3.57;;
29362;SDS011;16349;53.672;10.014;2023-03-24T06:21:17;4.20;;;3.50;;
29362;SDS011;16349;53.672;10.014;2023-03-24T06:23:44;3.83;;;2.90;;
29362;SDS011;16349;53.672;10.014;2023-03-24T06:26:14;3.23;;;2.77;;
29362;SDS011;16349;53.672;10.014;2023-03-24T06:28:49;4.57;;;2.73;;
29362;SDS011;16349;53.672;10.014;2023-03-24T06:31:17;4.53;;;3.87;;
29362;SDS011;16349;53.672;10.014;2023-03-24T06:33:49;4.13;;;3.17;;
29362;SDS011;16349;53.672;10.014;2023-03-24T06:36:17;4.67;;;3.57;;
29362;SDS011;16349;53.672;10.014;2023-03-24T06:38:45;6.73;;;3.23;;
29362;SDS011;16349;53.672;10.014;2023-03-24T06:41:15;3.20;;;2.30;;
29362;SDS011;16349;53.672;10.014;2023-03-24T06:43:46;4.67;;;2.37;;
29362;SDS011;16349;53.672;10.014;2023-03-24T06:46:13;4.87;;;3.50;;
29362;SDS011;16349;53.672;10.014;2023-03-24T06:48:43;4.70;;;3.30;;
29362;SDS011;16349;53.672;10.014;2023-03-24T06:51:12;2.90;;;2.40;;
29362;SDS011;16349;53.672;10.014;2023-03-24T06:53:39;2.60;;;2.40;;
29362;SDS011;16349;53.672;10.014;2023-03-24T06:56:09;2.90;;;2.60;;
29362;SDS011;16349;53.672;10.014;2023-03-24T06:58:42;2.67;;;2.47;;
29362;SDS011;16349;53.672;10.014;2023-03-24T07:01:30;3.77;;;2.80;;
29362;SDS011;16349;53.672;10.014;2023-03-24T07:04:03;3.07;;;2.87;;
29362;SDS011;16349;53.672;10.014;2023-03-24T07:06:53;4.07;;;3.00;;
29362;SDS011;16349;53.672;10.014;2023-03-24T07:09:21;2.40;;;2.20;;
29362;SDS011;16349;53.672;10.014;2023-03-24T07:11:49;2.43;;;2.27;;
29362;SDS011;16349;53.672;10.014;2023-03-24T07:14:16;2.33;;;1.90;;
29362;SDS011;16349;53.672;10.014;2023-03-24T07:16:43;1.40;;;1.30;;
29362;SDS011;16349;53.672;10.014;2023-03-24T07:19:33;1.20;;;1.10;;
29362;SDS011;16349;53.672;10.014;2023-03-24T07:22:33;2.40;;;1.17;;
29362;SDS011;16349;53.672;10.014;2023-03-24T07:25:20;1.40;;;1.30;;
29362;SDS011;16349;53.672;10.014;2023-03-24T07:27:54;3.63;;;1.93;;
29362;SDS011;16349;53.672;10.014;2023-03-24T07:30:21;1.90;;;1.00;;
29362;SDS011;16349;53.672;10.014;2023-03-24T07:32:49;1.93;;;1.33;;
29362;SDS011;16349;53.672;10.014;2023-03-24T07:35:18;1.60;;;1.00;;
29362;SDS011;16349;53.672;10.014;2023-03-24T07:37:46;1.47;;;0.83;;
29362;SDS011;16349;53.672;10.014;2023-03-24T07:40:14;3.57;;;1.10;;
29362;SDS011;16349;53.672;10.014;2023-03-24T07:42:42;3.10;;;1.20;;
29362;SDS011;16349;53.672;10.014;2023-03-24T07:45:29;4.67;;;1.50;;
29362;SDS011;16349;53.672;10.014;2023-03-24T07:47:58;1.73;;;1.50;;
29362;SDS011;16349;53.672;10.014;2023-03-24T07:50:29;2.07;;;1.00;;
29362;SDS011;16349;53.672;10.014;2023-03-24T07:52:58;1.47;;;0.87;;
29362;SDS011;16349;53.672;10.014;2023-03-24T07:55:26;1.30;;;1.00;;
29362;SDS011;16349;53.672;10.014;2023-03-24T07:57:57;3.87;;;1.20;;
29362;SDS011;16349;53.672;10.014;2023-03-24T08:00:25;2.00;;;0.73;;
29362;SDS011;16349;53.672;10.014;2023-03-24T08:03:13;3.10;;;1.00;;
29362;SDS011;16349;53.672;10.014;2023-03-24T08:06:18;4.83;;;0.83;;
29362;SDS011;16349;53.672;10.014;2023-03-24T08:08:51;6.20;;;1.40;;
29362;SDS011;16349;53.672;10.014;2023-03-24T08:11:17;4.60;;;1.57;;
29362;SDS011;16349;53.672;10.014;2023-03-24T08:13:44;5.37;;;1.33;;
29362;SDS011;16349;53.672;10.014;2023-03-24T08:16:11;4.47;;;0.90;;
29362;SDS011;16349;53.672;10.014;2023-03-24T08:18:37;3.87;;;1.20;;
29362;SDS011;16349;53.672;10.014;2023-03-24T08:21:05;7.47;;;1.70;;
29362;SDS011;16349;53.672;10.014;2023-03-24T08:23:32;3.40;;;1.27;;
29362;SDS011;16349;53.672;10.014;2023-03-24T08:26:02;6.10;;;1.33;;
29362;SDS011;16349;53.672;10.014;2023-03-24T08:28:29;3.23;;;1.07;;
29362;SDS011;16349;53.672;10.014;2023-03-24T08:30:55;5.70;;;1.70;;
29362;SDS011;16349;53.672;10.014;2023-03-24T08:33:22;6.23;;;1.20;;
29362;SDS011;16349;53.672;10.014;2023-03-24T08:35:51;3.33;;;1.03;;
29362;SDS011;16349;53.672;10.014;2023-03-24T08:38:22;6.67;;;1.90;;
29362;SDS011;16349;53.672;10.014;2023-03-24T08:40:55;6.17;;;1.00;;
29362;SDS011;16349;53.672;10.014;2023-03-24T08:43:27;5.30;;;1.40;;
29362;SDS011;16349;53.672;10.014;2023-03-24T08:45:55;4.53;;;1.07;;
29362;SDS011;16349;53.672;10.014;2023-03-24T08:48:22;4.80;;;1.40;;
29362;SDS011;16349;53.672;10.014;2023-03-24T08:50:49;5.07;;;0.93;;
29362;SDS011;16349;53.672;10.014;2023-03-24T08:53:16;5.83;;;1.50;;
29362;SDS011;16349;53.672;10.014;2023-03-24T08:55:43;6.73;;;1.30;;
29362;SDS011;16349;53.672;10.014;2023-03-24T08:58:11;4.27;;;1.43;;
29362;SDS011;16349;53.672;10.014;2023-03-24T09:00:41;6.97;;;1.67;;
29362;SDS011;16349;53.672;10.014;2023-03-24T09:03:11;7.00;;;1.40;;
29362;SDS011;16349;53.672;10.014;2023-03-24T09:05:42;4.83;;;1.40;;
29362;SDS011;16349;53.672;10.014;2023-03-24T09:08:10;3.80;;;1.13;;
29362;SDS011;16349;53.672;10.014;2023-03-24T09:10:37;6.27;;;1.47;;
29362;SDS011;16349;53.672;10.014;2023-03-24T09:13:05;5.70;;;1.00;;
29362;SDS011;16349;53.672;10.014;2023-03-24T09:15:32;3.67;;;1.53;;
29362;SDS011;16349;53.672;10.014;2023-03-24T09:18:01;3.77;;;1.20;;
29362;SDS011;16349;53.672;10.014;2023-03-24T09:20:28;3.60;;;1.33;;
29362;SDS011;16349;53.672;10.014;2023-03-24T09:22:55;6.30;;;1.50;;
29362;SDS011;16349;53.672;10.014;2023-03-24T09:25:22;4.27;;;1.23;;
29362;SDS011;16349;53.672;10.014;2023-03-24T09:27:49;8.33;;;1.30;;
29362;SDS011;16349;53.672;10.014;2023-03-24T09:30:16;6.57;;;1.40;;
29362;SDS011;16349;53.672;10.014;2023-03-24T09:32:44;5.47;;;1.40;;
29362;SDS011;16349;53.672;10.014;2023-03-24T09:35:12;7.50;;;1.53;;
29362;SDS011;16349;53.672;10.014;2023-03-24T09:37:40;5.20;;;1.40;;
29362;SDS011;16349;53.672;10.014;2023-03-24T09:40:09;5.20;;;1.73;;
29362;SDS011;16349;53.672;10.014;2023-03-24T09:42:43;3.33;;;1.10;;
29362;SDS011;16349;53.672;10.014;2023-03-24T09:45:11;9.10;;;1.60;;
29362;SDS011;16349;53.672;10.014;2023-03-24T09:47:41;7.67;;;1.23;;
29362;SDS011;16349;53.672;10.014;2023-03-24T09:50:16;4.93;;;1.20;;
29362;SDS011;16349;53.672;10.014;2023-03-24T09:52:47;3.23;;;1.40;;
29362;SDS011;16349;53.672;10.014;2023-03-24T09:55:18;3.87;;;1.20;;
29362;SDS011;16349;53.672;10.014;2023-03-24T09:57:49;4.33;;;1.30;;
29362;SDS011;16349;53.672;10.014;2023-03-24T10:00:18;4.73;;;1.40;;
29362;SDS011;16349;53.672;10.014;2023-03-24T10:02:48;4.43;;;1.67;;
29362;SDS011;16349;53.672;10.014;2023-03-24T10:05:17;5.43;;;1.57;;
29362;SDS011;16349;53.672;10.014;2023-03-24T10:07:49;9.07;;;1.97;;
29362;SDS011;16349;53.672;10.014;2023-03-24T10:10:23;6.13;;;1.37;;
29362;SDS011;16349;53.672;10.014;2023-03-24T10:12:58;3.70;;;1.57;;
29362;SDS011;16349;53.672;10.014;2023-03-24T10:15:33;5.97;;;1.43;;
29362;SDS011;16349;53.672;10.014;2023-03-24T10:18:09;2.37;;;0.70;;
29362;SDS011;16349;53.672;10.014;2023-03-24T10:20:57;6.70;;;1.40;;
29362;SDS011;16349;53.672;10.014;2023-03-24T10:23:29;5.37;;;1.23;;
29362;SDS011;16349;53.672;10.014;2023-03-24T10:26:02;5.40;;;1.20;;
29362;SDS011;16349;53.672;10.014;2023-03-24T10:28:37;4.00;;;1.13;;
29362;SDS011;16349;53.672;10.014;2023-03-24T10:31:10;5.43;;;1.80;;
29362;SDS011;16349;53.672;10.014;2023-03-24T10:33:40;3.30;;;1.13;;
29362;SDS011;16349;53.672;10.014;2023-03-24T10:36:11;4.00;;;1.13;;
29362;SDS011;16349;53.672;10.014;2023-03-24T10:38:40;6.63;;;1.47;;
29362;SDS011;16349;53.672;10.014;2023-03-24T10:41:08;4.57;;;1.40;;
29362;SDS011;16349;53.672;10.014;2023-03-24T10:43:40;3.33;;;1.30;;
29362;SDS011;16349;53.672;10.014;2023-03-24T10:46:07;5.03;;;1.10;;
29362;SDS011;16349;53.672;10.014;2023-03-24T10:48:41;3.10;;;1.20;;
29362;SDS011;16349;53.672;10.014;2023-03-24T10:51:14;8.03;;;2.07;;
29362;SDS011;16349;53.672;10.014;2023-03-24T10:53:44;3.27;;;1.30;;
29362;SDS011;16349;53.672;10.014;2023-03-24T10:56:15;6.03;;;1.40;;
29362;SDS011;16349;53.672;10.014;2023-03-24T10:58:45;4.00;;;1.97;;
29362;SDS011;16349;53.672;10.014;2023-03-24T11:01:20;6.23;;;1.23;;
29362;SDS011;16349;53.672;10.014;2023-03-24T11:03:52;5.30;;;1.33;;
29362;SDS011;16349;53.672;10.014;2023-03-24T11:06:26;5.10;;;1.33;;
29362;SDS011;16349;53.672;10.014;2023-03-24T11:09:07;7.70;;;1.20;;
29362;SDS011;16349;53.672;10.014;2023-03-24T11:11:37;5.03;;;1.43;;
29362;SDS011;16349;53.672;10.014;2023-03-24T11:14:15;6.73;;;1.47;;
29362;SDS011;16349;53.672;10.014;2023-03-24T11:16:46;5.97;;;1.33;;
29362;SDS011;16349;53.672;10.014;2023-03-24T11:19:16;7.63;;;1.37;;
29362;SDS011;16349;53.672;10.014;2023-03-24T11:21:46;5.23;;;1.23;;
29362;SDS011;16349;53.672;10.014;2023-03-24T11:24:15;7.53;;;1.50;;
29362;SDS011;16349;53.672;10.014;2023-03-24T11:27:02;5.63;;;1.10;;
29362;SDS011;16349;53.672;10.014;2023-03-24T11:29:31;4.93;;;1.30;;
29362;SDS011;16349;53.672;10.014;2023-03-24T11:32:05;4.50;;;1.20;;
29362;SDS011;16349;53.672;10.014;2023-03-24T11:34:38;7.40;;;1.33;;
29362;SDS011;16349;53.672;10.014;2023-03-24T11:37:12;5.00;;;1.83;;
29362;SDS011;16349;53.672;10.014;2023-03-24T11:39:42;5.40;;;1.33;;
29362;SDS011;16349;53.672;10.014;2023-03-24T11:42:13;4.90;;;1.20;;
29362;SDS011;16349;53.672;10.014;2023-03-24T11:44:45;6.37;;;1.57;;
29362;SDS011;16349;53.672;10.014;2023-03-24T11:47:16;4.57;;;1.40;;
29362;SDS011;16349;53.672;10.014;2023-03-24T11:50:13;5.07;;;1.57;;
29362;SDS011;16349;53.672;10.014;2023-03-24T11:52:46;5.73;;;1.30;;
29362;SDS011;16349;53.672;10.014;2023-03-24T11:55:20;2.90;;;1.27;;
29362;SDS011;16349;53.672;10.014;2023-03-24T11:57:54;15.10;;;1.67;;
29362;SDS011;16349;53.672;10.014;2023-03-24T12:00:25;4.70;;;1.20;;
29362;SDS011;16349;53.672;10.014;2023-03-24T12:03:18;5.63;;;1.37;;
29362;SDS011;16349;53.672;10.014;2023-03-24T12:05:59;3.27;;;1.10;;
29362;SDS011;16349;53.672;10.014;2023-03-24T12:08:39;4.23;;;1.47;;
29362;SDS011;16349;53.672;10.014;2023-03-24T12:11:13;7.00;;;1.20;;
29362;SDS011;16349;53.672;10.014;2023-03-24T12:13:46;9.60;;;1.60;;
29362;SDS011;16349;53.672;10.014;2023-03-24T12:16:19;3.67;;;1.80;;
29362;SDS011;16349;53.672;10.014;2023-03-24T12:19:19;5.03;;;1.23;;
29362;SDS011;16349;53.672;10.014;2023-03-24T12:22:00;4.63;;;2.00;;
29362;SDS011;16349;53.672;10.014;2023-03-24T12:24:55;5.73;;;1.40;;
29362;SDS011;16349;53.672;10.014;2023-03-24T12:27:36;7.53;;;1.80;;
29362;SDS011;16349;53.672;10.014;2023-03-24T12:30:15;3.60;;;1.40;;
29362;SDS011;16349;53.672;10.014;2023-03-24T12:32:53;9.23;;;1.67;;
29362;SDS011;16349;53.672;10.014;2023-03-24T12:38:32;10.23;;;1.60;;
29362;SDS011;16349;53.672;10.014;2023-03-24T12:41:11;2.97;;;0.90;;
29362;SDS011;16349;53.672;10.014;2023-03-24T12:43:49;8.10;;;1.53;;
29362;SDS011;16349;53.672;10.014;2023-03-24T12:46:30;10.27;;;1.80;;
29362;SDS011;16349;53.672;10.014;2023-03-24T12:49:08;8.17;;;1.93;;
29362;SDS011;16349;53.672;10.014;2023-03-24T12:51:50;6.00;;;1.37;;
29362;SDS011;16349;53.672;10.014;2023-03-24T12:54:29;8.20;;;1.87;;
29362;SDS011;16349;53.672;10.014;2023-03-24T12:57:01;6.23;;;1.43;;
29362;SDS011;16349;53.672;10.014;2023-03-24T12:59:34;6.63;;;1.53;;
29362;SDS011;16349;53.672;10.014;2023-03-24T13:02:21;7.23;;;1.50;;
29362;SDS011;16349;53.672;10.014;2023-03-24T13:04:55;7.97;;;1.70;;
29362;SDS011;16349;53.672;10.014;2023-03-24T13:07:28;10.63;;;1.77;;
29362;SDS011;16349;53.672;10.014;2023-03-24T13:09:58;6.00;;;1.40;;
29362;SDS011;16349;53.672;10.014;2023-03-24T13:12:33;5.67;;;1.97;;
29362;SDS011;16349;53.672;10.014;2023-03-24T13:15:05;5.00;;;1.67;;
29362;SDS011;16349;53.672;10.014;2023-03-24T13:17:42;8.70;;;1.80;;
29362;SDS011;16349;53.672;10.014;2023-03-24T13:20:16;5.53;;;1.90;;
29362;SDS011;16349;53.672;10.014;2023-03-24T13:22:49;5.67;;;1.60;;
29362;SDS011;16349;53.672;10.014;2023-03-24T13:25:19;7.00;;;1.50;;
29362;SDS011;16349;53.672;10.014;2023-03-24T13:28:16;5.30;;;1.77;;
29362;SDS011;16349;53.672;10.014;2023-03-24T13:30:49;5.37;;;1.37;;
29362;SDS011;16349;53.672;10.014;2023-03-24T13:33:17;4.17;;;1.40;;
29362;SDS011;16349;53.672;10.014;2023-03-24T13:35:54;2.90;;;1.20;;
29362;SDS011;16349;53.672;10.014;2023-03-24T13:38:53;5.43;;;1.17;;
29362;SDS011;16349;53.672;10.014;2023-03-24T13:41:23;7.27;;;1.53;;
29362;SDS011;16349;53.672;10.014;2023-03-24T13:43:57;8.57;;;1.50;;
29362;SDS011;16349;53.672;10.014;2023-03-24T13:46:26;5.30;;;1.13;;
29362;SDS011;16349;53.672;10.014;2023-03-24T13:49:13;5.10;;;1.27;;
29362;SDS011;16349;53.672;10.014;2023-03-24T13:51:42;4.33;;;1.67;;
29362;SDS011;16349;53.672;10.014;2023-03-24T13:54:12;8.83;;;1.50;;
29362;SDS011;16349;53.672;10.014;2023-03-24T13:56:44;6.80;;;1.20;;
29362;SDS011;16349;53.672;10.014;2023-03-24T13:59:26;6.13;;;1.30;;
29362;SDS011;16349;53.672;10.014;2023-03-24T14:05:34;8.83;;;1.87;;
29362;SDS011;16349;53.672;10.014;2023-03-24T14:08:43;2.93;;;0.93;;
29362;SDS011;16349;53.672;10.014;2023-03-24T14:11:41;2.53;;;0.90;;
29362;SDS011;16349;53.672;10.014;2023-03-24T14:14:16;4.03;;;1.13;;
29362;SDS011;16349;53.672;10.014;2023-03-24T14:16:51;2.00;;;0.70;;
29362;SDS011;16349;53.672;10.014;2023-03-24T14:19:21;3.63;;;1.23;;
29362;SDS011;16349;53.672;10.014;2023-03-24T14:21:55;2.83;;;1.10;;
29362;SDS011;16349;53.672;10.014;2023-03-24T14:24:25;4.80;;;1.27;;
29362;SDS011;16349;53.672;10.014;2023-03-24T14:26:54;3.17;;;1.40;;
29362;SDS011;16349;53.672;10.014;2023-03-24T14:29:33;6.00;;;1.40;;
29362;SDS011;16349;53.672;10.014;2023-03-24T14:32:11;4.60;;;1.20;;
29362;SDS011;16349;53.672;10.014;2023-03-24T14:34:59;6.10;;;1.03;;
29362;SDS011;16349;53.672;10.014;2023-03-24T14:37:49;4.87;;;1.67;;
29362;SDS011;16349;53.672;10.014;2023-03-24T14:40:26;5.87;;;1.50;;
29362;SDS011;16349;53.672;10.014;2023-03-24T14:43:03;6.20;;;1.50;;
29362;SDS011;16349;53.672;10.014;2023-03-24T14:45:51;6.17;;;1.93;;
29362;SDS011;16349;53.672;10.014;2023-03-24T14:51:28;8.47;;;1.73;;
29362;SDS011;16349;53.672;10.014;2023-03-24T14:54:02;6.67;;;1.50;;
29362;SDS011;16349;53.672;10.014;2023-03-24T14:56:32;5.77;;;1.80;;
29362;SDS011;16349;53.672;10.014;2023-03-24T14:59:02;7.60;;;1.40;;
29362;SDS011;16349;53.672;10.014;2023-03-24T15:01:36;4.77;;;1.30;;
29362;SDS011;16349;53.672;10.014;2023-03-24T15:04:05;6.70;;;1.17;;
29362;SDS011;16349;53.672;10.014;2023-03-24T15:06:41;5.77;;;1.33;;
29362;SDS011;16349;53.672;10.014;2023-03-24T15:09:11;7.07;;;1.87;;
29362;SDS011;16349;53.672;10.014;2023-03-24T15:11:39;5.23;;;1.30;;
29362;SDS011;16349;53.672;10.014;2023-03-24T15:14:12;4.37;;;1.13;;
29362;SDS011;16349;53.672;10.014;2023-03-24T15:16:49;7.07;;;1.77;;
29362;SDS011;16349;53.672;10.014;2023-03-24T15:19:20;4.87;;;1.60;;
29362;SDS011;16349;53.672;10.014;2023-03-24T15:21:51;4.70;;;1.60;;
29362;SDS011;16349;53.672;10.014;2023-03-24T15:24:25;7.57;;;1.83;;
29362;SDS011;16349;53.672;10.014;2023-03-24T15:27:06;4.87;;;1.17;;
29362;SDS011;16349;53.672;10.014;2023-03-24T15:29:43;3.97;;;1.53;;